Time;durP1;ratioP1;P1;durP2;ratioP2;P2;SDS_P1;SDS_P2;PMS_P1;PMS_P2;Temp;Humidity;BMP_temperature;BMP_pressure;BME280_temperature;BME280_humidity;BME280_pressure;Samples;Min_cycle;Max_cycle;Signal;HPM_P1;HPM_P2
2023/10/13 06:31:05;;;;;;;0.13;0.00;;;20.30;66.90;;;;;;4911426;29;20047;-74
2023/10/13 06:33:33;;;;;;;0.00;0.00;;;20.40;67.40;;;;;;4900497;29;20065;-74
2023/10/13 06:36:01;;;;;;;0.00;0.00;;;20.50;67.30;;;;;;4884353;29;20029;-74
2023/10/13 06:38:35;;;;;;;0.00;0.00;;;20.60;67.40;;;;;;4901366;29;20580;-74
2023/10/13 06:41:07;;;;;;;0.00;0.00;;;20.50;67.10;;;;;;4914584;29;20480;-74
2023/10/13 06:43:39;;;;;;;0.00;0.00;;;20.50;67.30;;;;;;4900100;29;20088;-75
2023/10/13 06:46:07;;;;;;;0.00;0.00;;;20.60;67.40;;;;;;4915747;29;20111;-74
2023/10/13 06:48:34;;;;;;;0.00;0.00;;;20.70;67.50;;;;;;4903490;29;20032;-74
2023/10/13 06:51:17;;;;;;;0.00;0.00;;;20.80;67.00;;;;;;4902083;29;20079;-74
2023/10/13 06:53:47;;;;;;;0.00;0.00;;;20.80;67.20;;;;;;4909660;29;20123;-74
2023/10/13 06:56:26;;;;;;;0.00;0.00;;;20.80;67.50;;;;;;4909392;29;20062;-74
2023/10/13 06:58:59;;;;;;;0.00;0.00;;;20.70;67.60;;;;;;4921030;29;20115;-74
2023/10/13 07:01:27;;;;;;;0.00;0.00;;;20.80;67.40;;;;;;4917867;29;20017;-74
2023/10/13 07:03:53;;;;;;;0.10;0.10;;;20.80;67.80;;;;;;4914228;29;20035;-74
2023/10/13 07:06:20;;;;;;;0.13;0.00;;;20.80;67.70;;;;;;4907113;29;20108;-74
2023/10/13 07:08:51;;;;;;;0.00;0.00;;;20.80;67.80;;;;;;4904845;29;20120;-74
2023/10/13 07:11:33;;;;;;;0.00;0.00;;;20.80;67.90;;;;;;4904567;29;20399;-74
2023/10/13 07:14:16;;;;;;;0.00;0.00;;;20.80;68.20;;;;;;4903323;29;20044;-74
2023/10/13 07:16:59;;;;;;;0.00;0.00;;;20.80;68.10;;;;;;4920353;29;20102;-74
2023/10/13 07:19:28;;;;;;;;;;;20.80;68.10;;;;;;4908031;29;20020;-74
2023/10/13 07:22:21;;;;;;;0.00;0.00;;;20.80;68.20;;;;;;4912690;29;19913;-74
2023/10/13 07:24:48;;;;;;;0.10;0.10;;;20.90;67.70;;;;;;4910824;29;20499;-74
2023/10/13 07:27:24;;;;;;;0.10;0.10;;;21.10;67.80;;;;;;4904382;29;20028;-74
2023/10/13 07:29:56;;;;;;;0.00;0.00;;;21.20;67.50;;;;;;4904313;29;20036;-74
2023/10/13 07:32:26;;;;;;;0.10;0.10;;;21.20;67.50;;;;;;4905826;29;20088;-74
2023/10/13 07:34:58;;;;;;;0.03;0.03;;;21.10;67.80;;;;;;4904615;29;20024;-74
2023/10/13 07:37:29;;;;;;;0.08;0.08;;;21.20;67.70;;;;;;4904442;29;20095;-74
2023/10/13 07:39:57;;;;;;;0.03;0.03;;;21.20;68.10;;;;;;4905067;29;20024;-74
2023/10/13 07:42:30;;;;;;;0.03;0.03;;;21.10;68.30;;;;;;4903994;29;20055;-74
2023/10/13 07:44:57;;;;;;;0.10;0.10;;;21.10;68.40;;;;;;4904269;29;20131;-73
2023/10/13 07:47:24;;;;;;;0.00;0.00;;;21.10;68.50;;;;;;4903617;29;20044;-74
2023/10/13 07:49:50;;;;;;;0.13;0.10;;;21.30;68.50;;;;;;4904158;29;20063;-74
2023/10/13 07:54:49;;;;;;;0.00;0.00;;;21.30;68.80;;;;;;4903447;29;20110;-74
2023/10/13 07:57:17;;;;;;;0.10;0.10;;;21.30;68.50;;;;;;4902872;29;20033;-74
2023/10/13 07:59:52;;;;;;;0.00;0.00;;;21.30;68.80;;;;;;4904239;29;20112;-74
2023/10/13 08:03:08;;;;;;;0.00;0.00;;;21.40;68.80;;;;;;4902360;29;20043;-75
2023/10/13 08:05:14;;;;;;;0.00;0.00;;;21.40;68.90;;;;;;4895914;29;20036;-74
2023/10/13 08:07:41;;;;;;;0.03;0.00;;;21.40;68.80;;;;;;4908759;29;20032;-74
2023/10/13 08:10:10;;;;;;;0.00;0.00;;;21.40;69.00;;;;;;4908430;29;20027;-74
2023/10/13 08:12:37;;;;;;;0.00;0.00;;;21.40;69.20;;;;;;4902062;29;20032;-74
2023/10/13 08:15:21;;;;;;;0.00;0.00;;;21.50;69.30;;;;;;4903191;29;20059;-80
2023/10/13 08:17:47;;;;;;;0.00;0.00;;;21.50;69.40;;;;;;4902640;29;20092;-74
2023/10/13 08:20:12;;;;;;;0.13;0.00;;;21.50;69.60;;;;;;4903364;29;20111;-73
2023/10/13 08:22:46;;;;;;;0.08;0.08;;;21.60;69.50;;;;;;4917258;29;20070;-74
2023/10/13 08:25:20;;;;;;;0.08;0.08;;;21.70;70.10;;;;;;4919473;29;20031;-74
2023/10/13 08:28:46;;;;;;;0.00;0.00;;;21.70;69.70;;;;;;4902545;29;20047;-74
2023/10/13 08:30:42;;;;;;;0.03;0.00;;;21.80;69.90;;;;;;4902873;29;20092;-74
2023/10/13 08:33:17;;;;;;;0.00;0.00;;;21.70;70.00;;;;;;4909780;29;20043;-74
2023/10/13 08:36:17;;;;;;;0.10;0.10;;;21.60;70.30;;;;;;4908497;29;20385;-74
2023/10/13 08:38:50;;;;;;;0.10;0.10;;;21.60;70.30;;;;;;4911565;29;20400;-74
2023/10/13 08:43:50;;;;;;;0.00;0.00;;;21.50;71.00;;;;;;4911147;29;20505;-74
2023/10/13 08:46:29;;;;;;;0.00;0.00;;;21.60;71.10;;;;;;4896396;29;20024;-74
2023/10/13 08:49:15;;;;;;;0.00;0.00;;;21.60;71.30;;;;;;4902380;29;20080;-75
2023/10/13 08:52:45;;;;;;;0.03;0.03;;;21.60;71.40;;;;;;4885741;29;20058;-74
2023/10/13 08:54:35;;;;;;;0.00;0.00;;;21.70;71.70;;;;;;4895167;29;20124;-74
2023/10/13 08:57:19;;;;;;;0.00;0.00;;;21.70;71.40;;;;;;4908308;29;20028;-72
2023/10/13 08:59:53;;;;;;;0.00;0.00;;;21.80;71.50;;;;;;4914471;29;20028;-73
2023/10/13 09:05:41;;;;;;;0.05;0.05;;;21.90;71.60;;;;;;4910166;29;20043;-73
2023/10/13 09:07:57;;;;;;;0.00;0.00;;;21.90;71.80;;;;;;4912266;29;20161;-73
2023/10/13 09:10:44;;;;;;;0.30;0.10;;;21.90;72.60;;;;;;4899971;29;20342;-74
2023/10/13 09:13:20;;;;;;;0.05;0.05;;;21.90;72.60;;;;;;4906277;29;20040;-74
2023/10/13 09:16:01;;;;;;;0.05;0.05;;;21.80;72.90;;;;;;4905498;29;20035;-74
2023/10/13 09:18:46;;;;;;;0.10;0.10;;;21.80;73.00;;;;;;4920842;29;20608;-74
2023/10/13 09:21:34;;;;;;;0.10;0.10;;;21.90;72.90;;;;;;4911504;29;20024;-74
2023/10/13 09:26:49;;;;;;;0.10;0.03;;;22.20;72.50;;;;;;4901916;29;20043;-74
2023/10/13 10:29:34;;;;;;;0.10;0.10;;;22.00;80.30;;;;;;4879134;29;20063;-90
2023/10/13 10:32:13;;;;;;;0.10;0.10;;;21.90;80.60;;;;;;4864553;29;20021;-88
2023/10/13 10:34:39;;;;;;;0.20;0.10;;;21.80;80.70;;;;;;4858114;29;20061;-87
2023/10/13 10:37:34;;;;;;;0.10;0.10;;;21.90;80.80;;;;;;4851547;29;20028;-85
2023/10/13 10:40:05;;;;;;;0.00;0.00;;;21.90;80.70;;;;;;4875005;29;20022;-88
2023/10/13 10:42:34;;;;;;;0.10;0.10;;;22.00;80.60;;;;;;4853852;29;20029;-90
2023/10/13 10:49:04;;;;;;;0.10;0.10;;;22.10;79.90;;;;;;4865388;29;20044;-83
2023/10/13 11:10:54;;;;;;;0.10;0.05;;;22.40;78.50;;;;;;4804656;29;20053;-86
2023/10/13 11:13:30;;;;;;;0.10;0.10;;;22.50;78.40;;;;;;4854875;29;20041;-87
2023/10/13 11:26:12;;;;;;;0.08;0.08;;;22.70;77.20;;;;;;4898344;23;20110;-94
2023/10/13 15:11:00;;;;;;;0.00;0.00;;;21.30;68.10;;;;;;4858217;29;20052;-84
2023/10/13 15:13:38;;;;;;;0.05;0.05;;;21.30;67.30;;;;;;4871025;29;20506;-86
2023/10/13 15:16:21;;;;;;;0.05;0.05;;;21.30;67.60;;;;;;4845809;29;20112;-86
2023/10/13 15:18:58;;;;;;;0.00;0.00;;;21.30;67.10;;;;;;4849210;29;20037;-85
2023/10/13 15:21:35;;;;;;;0.00;0.00;;;21.30;67.10;;;;;;4854155;29;20116;-85
2023/10/13 15:24:17;;;;;;;0.00;0.00;;;21.30;67.00;;;;;;4880300;29;20413;-85
2023/10/13 15:26:52;;;;;;;0.08;0.08;;;21.30;67.00;;;;;;4850224;29;20077;-85
2023/10/13 15:29:35;;;;;;;;;;;;;;;;;;;;;
2023/10/13 15:35:22;;;;;;;0.00;0.00;;;21.30;67.00;;;;;;4870117;29;20064;-84
2023/10/13 15:38:12;;;;;;;0.00;0.00;;;21.30;67.40;;;;;;4858210;29;20057;-84
2023/10/13 15:41:25;;;;;;;0.00;0.00;;;21.30;67.60;;;;;;4858182;29;20097;-81
2023/10/13 15:44:06;;;;;;;0.07;0.07;;;21.20;67.70;;;;;;4864143;29;20462;-79
2023/10/13 15:46:50;;;;;;;0.00;0.00;;;21.10;67.40;;;;;;4855680;29;20041;-79
2023/10/13 15:52:11;;;;;;;0.00;0.00;;;21.00;68.00;;;;;;4859385;29;20101;-79
2023/10/13 15:54:47;;;;;;;0.00;0.00;;;21.10;68.50;;;;;;4855872;29;20032;-79
2023/10/13 15:57:27;;;;;;;0.00;0.00;;;21.00;68.40;;;;;;4856940;29;20033;-79
2023/10/13 16:00:22;;;;;;;0.00;0.00;;;20.90;68.30;;;;;;4860101;29;20370;-80
2023/10/13 16:03:48;;;;;;;;;;;;;;;;;;;;;
2023/10/13 16:06:14;;;;;;;0.00;0.00;;;21.10;68.40;;;;;;4864723;29;19926;-82
2023/10/13 16:12:35;;;;;;;0.00;0.00;;;21.10;68.20;;;;;;4867285;29;20077;-82
2023/10/13 16:30:37;;;;;;;0.00;0.00;;;20.90;69.20;;;;;;5522837;23;20060;-82
2023/10/13 16:33:40;;;;;;;0.00;0.00;;;20.80;69.60;;;;;;4886818;29;20037;-85
2023/10/13 16:45:31;;;;;;;0.00;0.00;;;20.70;69.80;;;;;;4903499;29;20457;-80
2023/10/13 16:47:56;;;;;;;0.10;0.10;;;20.70;69.40;;;;;;4891046;29;20037;-85
2023/10/13 16:50:22;;;;;;;0.00;0.00;;;20.60;69.10;;;;;;4883957;29;20028;-80
2023/10/13 16:52:49;;;;;;;0.00;0.00;;;20.60;69.30;;;;;;4883289;29;20048;-80
2023/10/13 16:55:19;;;;;;;0.00;0.00;;;20.60;69.40;;;;;;4883252;29;20100;-81
2023/10/13 16:57:49;;;;;;;0.00;0.00;;;20.60;69.60;;;;;;4884225;29;20028;-80
2023/10/13 17:00:16;;;;;;;0.05;0.05;;;20.60;69.40;;;;;;4883217;29;20032;-81
2023/10/13 17:02:42;;;;;;;0.00;0.00;;;20.60;69.60;;;;;;4883406;29;20036;-87
2023/10/13 17:05:17;;;;;;;0.00;0.00;;;20.50;70.10;;;;;;4896140;29;20033;-79
2023/10/13 17:07:46;;;;;;;0.03;0.00;;;20.50;70.20;;;;;;4903062;29;20035;-78
2023/10/13 17:10:16;;;;;;;0.00;0.00;;;20.50;70.40;;;;;;4902008;29;20516;-80
2023/10/13 17:12:42;;;;;;;0.00;0.00;;;20.50;71.30;;;;;;4903080;29;20100;-84
2023/10/13 17:15:19;;;;;;;0.00;0.00;;;20.30;72.30;;;;;;4902749;29;20020;-81
2023/10/13 17:17:46;;;;;;;0.00;0.00;;;20.10;74.70;;;;;;4900198;29;20528;-81
2023/10/13 17:20:17;;;;;;;0.05;0.05;;;20.00;75.10;;;;;;4902525;29;20016;-82
2023/10/13 17:22:55;;;;;;;0.00;0.00;;;20.00;74.90;;;;;;4901224;29;20107;-82
2023/10/13 17:25:21;;;;;;;0.00;0.00;;;20.00;74.60;;;;;;4902819;29;20029;-80
2023/10/13 17:27:47;;;;;;;0.00;0.00;;;20.00;74.90;;;;;;4902668;29;20518;-82
2023/10/13 17:30:13;;;;;;;0.05;0.05;;;19.90;74.50;;;;;;4902402;29;20048;-81
2023/10/13 17:32:39;;;;;;;0.00;0.00;;;20.00;74.40;;;;;;4902067;29;20036;-81
2023/10/13 17:35:11;;;;;;;0.00;0.00;;;20.00;75.00;;;;;;4900740;29;20413;-81
2023/10/13 17:37:42;;;;;;;0.00;0.00;;;19.90;75.60;;;;;;4885900;29;20040;-80
2023/10/13 17:40:15;;;;;;;0.00;0.00;;;19.80;76.00;;;;;;4887213;29;20021;-80
2023/10/13 17:42:41;;;;;;;0.00;0.00;;;19.80;76.10;;;;;;4902667;29;20035;-80
2023/10/13 17:45:09;;;;;;;0.00;0.00;;;19.70;76.30;;;;;;4902427;29;20025;-80
2023/10/13 17:47:37;;;;;;;0.00;0.00;;;19.70;76.60;;;;;;4901132;29;20485;-78
2023/10/13 17:50:07;;;;;;;0.00;0.00;;;19.70;76.60;;;;;;4901077;29;20024;-80
2023/10/13 17:52:36;;;;;;;0.00;0.00;;;19.70;76.60;;;;;;4901825;29;20084;-78
2023/10/13 17:55:05;;;;;;;0.03;0.03;;;19.70;76.70;;;;;;4900454;29;20060;-79
2023/10/13 17:57:34;;;;;;;0.10;0.08;;;19.60;76.80;;;;;;4900050;29;20032;-78
2023/10/13 18:00:02;;;;;;;0.00;0.00;;;19.50;76.90;;;;;;4900878;29;20056;-79
2023/10/13 18:02:29;;;;;;;0.00;0.00;;;19.60;77.00;;;;;;4900822;29;20032;-77
2023/10/13 18:04:54;;;;;;;0.00;0.00;;;19.50;77.00;;;;;;4899996;29;20017;-75
2023/10/13 18:07:21;;;;;;;0.03;0.03;;;19.60;77.10;;;;;;4893282;29;20025;-76
2023/10/13 18:09:47;;;;;;;0.10;0.10;;;19.50;77.10;;;;;;4883425;29;20061;-76
2023/10/13 18:12:13;;;;;;;0.10;0.10;;;19.60;77.10;;;;;;4883215;29;20029;-76
2023/10/13 18:14:39;;;;;;;0.10;0.10;;;19.60;77.10;;;;;;4882100;29;20053;-76
2023/10/13 18:17:08;;;;;;;0.00;0.00;;;19.60;77.10;;;;;;4882924;29;20077;-76
2023/10/13 18:19:35;;;;;;;0.10;0.10;;;19.60;77.20;;;;;;4882952;29;20017;-78
2023/10/13 18:22:03;;;;;;;0.00;0.00;;;19.60;77.10;;;;;;4891100;29;20071;-77
2023/10/13 18:24:32;;;;;;;0.00;0.00;;;19.60;77.30;;;;;;4901802;29;20020;-76
2023/10/13 18:26:57;;;;;;;0.10;0.10;;;19.50;77.50;;;;;;4901718;29;20103;-77
2023/10/13 18:29:24;;;;;;;0.00;0.00;;;19.50;77.60;;;;;;4901556;29;20029;-76
2023/10/13 18:31:51;;;;;;;0.00;0.00;;;19.50;77.60;;;;;;4901672;29;20032;-76
2023/10/13 18:34:18;;;;;;;0.00;0.00;;;19.60;77.40;;;;;;4899672;29;20656;-76
2023/10/13 18:36:46;;;;;;;0.00;0.00;;;19.50;77.50;;;;;;4901459;29;20052;-77
2023/10/13 18:39:18;;;;;;;0.00;0.00;;;19.50;77.30;;;;;;4903297;29;20528;-78
2023/10/13 18:41:44;;;;;;;0.00;0.00;;;19.50;77.40;;;;;;4905563;29;20492;-76
2023/10/13 18:44:10;;;;;;;0.00;0.00;;;19.60;77.20;;;;;;4903838;29;20024;-76
2023/10/13 18:46:36;;;;;;;0.00;0.00;;;19.60;77.20;;;;;;4905576;29;20057;-79
2023/10/13 18:49:02;;;;;;;0.00;0.00;;;19.60;77.40;;;;;;4905230;29;20065;-78
2023/10/13 18:51:28;;;;;;;0.00;0.00;;;19.50;77.60;;;;;;4905581;29;20489;-78
2023/10/13 18:53:56;;;;;;;0.00;0.00;;;19.50;77.80;;;;;;4905206;29;20032;-78
2023/10/13 18:56:23;;;;;;;0.00;0.00;;;19.60;77.70;;;;;;4904842;29;20028;-80
2023/10/13 18:58:53;;;;;;;0.00;0.00;;;19.60;77.60;;;;;;4905040;29;20108;-80
2023/10/13 19:01:29;;;;;;;0.00;0.00;;;19.60;77.50;;;;;;4903885;29;20032;-78
2023/10/13 19:04:03;;;;;;;0.00;0.00;;;19.60;77.70;;;;;;4904909;29;20037;-79
2023/10/13 19:06:34;;;;;;;0.00;0.00;;;19.50;77.80;;;;;;4903472;29;20131;-79
2023/10/13 19:09:04;;;;;;;0.00;0.00;;;19.60;78.20;;;;;;4904079;29;20104;-78
2023/10/13 19:11:34;;;;;;;0.00;0.00;;;19.50;78.90;;;;;;4903419;29;20033;-78
2023/10/13 19:14:00;;;;;;;0.00;0.00;;;19.50;79.10;;;;;;4900469;29;20439;-78
2023/10/13 19:16:26;;;;;;;0.00;0.00;;;19.50;79.20;;;;;;4904547;29;20055;-77
2023/10/13 19:18:52;;;;;;;0.00;0.00;;;19.40;79.30;;;;;;4904494;29;20021;-77
2023/10/13 19:21:20;;;;;;;0.10;0.10;;;19.40;79.50;;;;;;4903010;29;20032;-77
2023/10/13 19:23:50;;;;;;;0.10;0.10;;;19.30;79.70;;;;;;4904794;29;20516;-78
2023/10/13 19:26:17;;;;;;;0.00;0.00;;;19.30;79.80;;;;;;4903655;29;20040;-78
2023/10/13 19:28:43;;;;;;;0.10;0.10;;;19.10;80.20;;;;;;4907403;29;20389;-79
2023/10/13 19:31:15;;;;;;;0.00;0.00;;;19.20;80.20;;;;;;4919682;29;20508;-78
2023/10/13 19:33:46;;;;;;;0.00;0.00;;;19.20;80.20;;;;;;4902886;29;20480;-78
2023/10/13 19:36:13;;;;;;;0.00;0.00;;;19.20;80.10;;;;;;4902222;29;20028;-79
2023/10/13 19:38:39;;;;;;;0.00;0.00;;;19.30;80.00;;;;;;4904087;29;20029;-80
2023/10/13 19:41:16;;;;;;;0.05;0.05;;;19.20;79.80;;;;;;4894167;29;20032;-77
2023/10/13 19:43:47;;;;;;;0.00;0.00;;;19.10;80.10;;;;;;4902792;29;20024;-78
2023/10/13 19:46:14;;;;;;;0.05;0.05;;;19.10;80.10;;;;;;4897642;29;20025;-77
2023/10/13 19:48:43;;;;;;;0.00;0.00;;;19.20;80.00;;;;;;4899249;29;20039;-78
2023/10/13 19:51:12;;;;;;;0.00;0.00;;;19.30;79.60;;;;;;4905039;29;20528;-78
2023/10/13 19:53:42;;;;;;;0.00;0.00;;;19.20;79.30;;;;;;4900321;29;20032;-78
2023/10/13 19:56:12;;;;;;;0.00;0.00;;;19.20;79.00;;;;;;4900617;29;20033;-89
2023/10/13 19:58:41;;;;;;;0.00;0.00;;;19.30;79.00;;;;;;4900463;29;20024;-87
2023/10/13 20:01:11;;;;;;;0.00;0.00;;;19.20;78.80;;;;;;4897526;29;20025;-88
2023/10/13 20:03:40;;;;;;;0.00;0.00;;;19.20;78.60;;;;;;4899065;29;20029;-88
2023/10/13 20:06:16;;;;;;;0.00;0.00;;;19.20;78.60;;;;;;4897954;29;20109;-90
2023/10/13 20:08:42;;;;;;;0.00;0.00;;;19.20;78.50;;;;;;4903699;29;20028;-89
2023/10/13 20:11:15;;;;;;;0.00;0.00;;;19.20;78.30;;;;;;4898404;29;20068;-88
2023/10/13 20:13:41;;;;;;;0.00;0.00;;;19.20;78.40;;;;;;4902210;29;20033;-88
2023/10/13 20:16:09;;;;;;;0.00;0.00;;;19.20;78.30;;;;;;4897180;29;20033;-89
2023/10/13 20:18:36;;;;;;;0.00;0.00;;;19.20;78.20;;;;;;4900482;29;20080;-88
2023/10/13 20:21:06;;;;;;;0.00;0.00;;;19.20;78.10;;;;;;4897747;29;20059;-88
2023/10/13 20:23:37;;;;;;;0.00;0.00;;;19.20;78.10;;;;;;4896869;29;20123;-86
2023/10/13 20:26:07;;;;;;;0.00;0.00;;;19.30;78.00;;;;;;4899736;29;20031;-86
2023/10/13 20:28:36;;;;;;;0.00;0.00;;;19.30;78.20;;;;;;4899689;29;20037;-86
2023/10/13 20:31:04;;;;;;;0.00;0.00;;;19.30;77.80;;;;;;4901253;29;20127;-87
2023/10/13 20:33:30;;;;;;;0.00;0.00;;;19.30;78.00;;;;;;4876874;29;20061;-86
2023/10/13 20:35:56;;;;;;;0.00;0.00;;;19.30;78.10;;;;;;4884015;29;20025;-85
2023/10/13 20:38:25;;;;;;;0.00;0.00;;;19.20;78.60;;;;;;4897983;29;20174;-86
2023/10/13 20:41:17;;;;;;;0.00;0.00;;;19.30;78.40;;;;;;4880802;29;20029;-85
2023/10/13 20:43:48;;;;;;;0.00;0.00;;;19.30;78.30;;;;;;4900294;29;20564;-85
2023/10/13 20:46:16;;;;;;;0.03;0.03;;;19.30;78.10;;;;;;4876686;29;20028;-87
2023/10/13 20:48:42;;;;;;;0.00;0.00;;;19.30;77.90;;;;;;4884435;29;20097;-86
2023/10/13 20:51:18;;;;;;;0.00;0.00;;;19.30;77.80;;;;;;4901717;29;20085;-85
2023/10/13 20:53:46;;;;;;;0.00;0.00;;;19.20;78.50;;;;;;4894840;29;20039;-86
2023/10/13 20:56:15;;;;;;;0.00;0.00;;;19.20;78.80;;;;;;4900977;29;20024;-85
2023/10/13 20:58:48;;;;;;;0.00;0.00;;;19.10;80.10;;;;;;4878350;29;20032;-84
2023/10/13 21:01:14;;;;;;;;;;;19.00;80.90;;;;;;4893546;29;20025;-85
2023/10/13 21:03:40;;;;;;;0.00;0.00;;;19.10;80.90;;;;;;4890225;29;19936;-85
2023/10/13 21:06:10;;;;;;;0.00;0.00;;;19.00;80.80;;;;;;4883393;29;20077;-85
2023/10/13 21:08:40;;;;;;;0.00;0.00;;;18.90;81.20;;;;;;4883823;29;20041;-85
2023/10/13 21:11:06;;;;;;;0.00;0.00;;;18.70;80.60;;;;;;4881851;29;20052;-84
2023/10/13 21:13:35;;;;;;;0.00;0.00;;;18.60;80.80;;;;;;4899288;29;20041;-86
2023/10/13 21:16:01;;;;;;;0.00;0.00;;;18.50;80.30;;;;;;4881793;29;20027;-84
2023/10/13 21:18:30;;;;;;;0.00;0.00;;;18.40;80.20;;;;;;4885012;29;20029;-85
2023/10/13 21:21:10;;;;;;;0.00;0.00;;;18.40;80.30;;;;;;4883232;29;20020;-85
2023/10/13 21:23:36;;;;;;;0.00;0.00;;;18.30;80.00;;;;;;4891816;29;20028;-85
2023/10/13 21:26:05;;;;;;;0.00;0.00;;;18.30;80.00;;;;;;4884648;29;20076;-85
2023/10/13 21:28:32;;;;;;;0.00;0.00;;;18.30;79.70;;;;;;4885157;29;20107;-84
